createdAt,value
2022-08-05T00:00:17.263Z,2.20
2022-08-05T00:02:50.430Z,2.88
2022-08-05T00:06:03.006Z,2.70
2022-08-05T00:08:32.794Z,2.22
2022-08-05T00:10:57.158Z,2.20
2022-08-05T00:13:38.876Z,3.10
2022-08-05T00:16:13.611Z,2.65
2022-08-05T00:18:44.842Z,2.28
2022-08-05T00:21:14.554Z,2.53
2022-08-05T00:23:46.044Z,2.10
2022-08-05T00:26:16.481Z,2.35
2022-08-05T00:28:44.230Z,2.38
2022-08-05T00:31:13.710Z,2.08
2022-08-05T00:34:55.988Z,2.80
2022-08-05T00:37:09.721Z,2.37
2022-08-05T00:39:14.368Z,2.10
2022-08-05T00:41:52.232Z,3.17
2022-08-05T00:44:30.544Z,2.03
2022-08-05T00:47:02.013Z,2.20
2022-08-05T00:49:32.507Z,2.45
2022-08-05T00:51:59.903Z,2.40
2022-08-05T00:54:28.067Z,2.22
2022-08-05T00:56:56.918Z,2.20
2022-08-05T00:59:23.797Z,2.17
2022-08-05T01:01:51.234Z,2.40
2022-08-05T01:04:20.062Z,2.38
2022-08-05T01:06:53.693Z,2.63
2022-08-05T01:09:22.724Z,2.38
2022-08-05T01:11:52.777Z,2.25
2022-08-05T01:14:28.453Z,2.50
2022-08-05T01:17:16.087Z,2.67
2022-08-05T01:20:01.275Z,2.80
2022-08-05T01:23:13.581Z,2.65
2022-08-05T01:26:13.411Z,2.30
2022-08-05T01:29:05.578Z,2.55
2022-08-05T01:31:42.632Z,2.50
2022-08-05T01:34:20.386Z,2.63
2022-08-05T01:36:51.731Z,2.50
2022-08-05T01:39:45.755Z,2.55
2022-08-05T01:42:10.202Z,2.60
2022-08-05T01:44:40.891Z,2.60
2022-08-05T01:47:09.612Z,2.85
2022-08-05T01:50:00.129Z,2.45
2022-08-05T01:52:25.346Z,2.58
2022-08-05T01:54:56.727Z,2.90
2022-08-05T01:58:10.296Z,2.95
2022-08-05T02:00:18.680Z,3.42
2022-08-05T02:02:57.533Z,3.30
2022-08-05T02:05:30.597Z,3.13
2022-08-05T02:08:01.973Z,3.25
2022-08-05T02:10:38.824Z,3.25
2022-08-05T02:13:36.523Z,3.00
2022-08-05T02:16:25.398Z,2.78
2022-08-05T02:19:34.469Z,2.97
2022-08-05T02:22:25.503Z,3.17
2022-08-05T02:24:57.974Z,2.80
2022-08-05T02:27:29.943Z,2.97
2022-08-05T02:30:14.052Z,3.97
2022-08-05T02:32:43.378Z,3.45
2022-08-05T02:35:19.113Z,3.22
2022-08-05T02:37:56.628Z,3.58
2022-08-05T02:40:27.658Z,3.20
2022-08-05T02:42:56.319Z,3.47
2022-08-05T02:45:25.308Z,3.08
2022-08-05T02:47:58.729Z,3.70
2022-08-05T02:50:38.890Z,2.70
2022-08-05T02:53:18.727Z,2.53
2022-08-05T02:55:52.233Z,3.10
2022-08-05T02:58:26.500Z,3.25
2022-08-05T03:00:56.553Z,3.70
2022-08-05T03:03:23.866Z,3.10
2022-08-05T03:06:53.761Z,3.33
2022-08-05T03:08:42.774Z,3.88
2022-08-05T03:11:56.620Z,3.90
2022-08-05T03:14:09.591Z,3.65
2022-08-05T03:16:40.622Z,3.00
2022-08-05T03:19:12.836Z,3.42
2022-08-05T03:21:48.636Z,3.30
2022-08-05T03:24:18.465Z,3.03
2022-08-05T03:26:58.145Z,3.50
2022-08-05T03:29:45.357Z,3.53
2022-08-05T03:32:12.658Z,3.20
2022-08-05T03:34:42.700Z,3.40
2022-08-05T03:37:18.493Z,3.20
2022-08-05T03:40:01.691Z,3.80
2022-08-05T03:42:32.113Z,2.67
2022-08-05T03:44:59.538Z,2.97
2022-08-05T03:47:35.215Z,3.03
2022-08-05T03:50:02.541Z,3.15
2022-08-05T03:52:50.354Z,3.17
2022-08-05T03:56:03.680Z,4.47
2022-08-05T03:58:22.704Z,3.05
2022-08-05T04:00:59.892Z,3.95
2022-08-05T04:03:29.298Z,3.72
2022-08-05T04:05:57.935Z,3.58
2022-08-05T04:08:36.506Z,3.00
2022-08-05T04:11:08.403Z,3.20
2022-08-05T04:13:50.389Z,3.30
2022-08-05T04:16:25.012Z,2.75
2022-08-05T04:18:57.970Z,3.00
2022-08-05T04:22:08.894Z,2.90
2022-08-05T04:24:18.830Z,3.42
2022-08-05T04:26:46.976Z,2.95
2022-08-05T04:29:14.275Z,3.03
2022-08-05T04:31:41.267Z,2.83
2022-08-05T04:34:31.151Z,3.10
2022-08-05T04:36:56.899Z,3.50
2022-08-05T04:39:23.963Z,2.92
2022-08-05T04:41:51.689Z,3.33
2022-08-05T04:44:21.216Z,3.38
2022-08-05T04:47:08.801Z,3.38
2022-08-05T04:50:02.432Z,2.38
2022-08-05T04:52:28.215Z,2.78
2022-08-05T04:54:57.312Z,2.80
2022-08-05T04:57:28.911Z,2.70
2022-08-05T04:59:57.277Z,2.83
2022-08-05T05:02:37.540Z,3.25
2022-08-05T05:05:26.376Z,3.20
2022-08-05T05:08:00.935Z,3.20
2022-08-05T05:10:33.954Z,2.92
2022-08-05T05:13:04.298Z,2.97
2022-08-05T05:15:56.715Z,2.63
2022-08-05T05:18:28.259Z,2.80
2022-08-05T05:21:00.173Z,2.80
2022-08-05T05:23:27.224Z,3.03
2022-08-05T05:26:14.025Z,2.63
2022-08-05T05:28:44.905Z,2.08
2022-08-05T05:31:12.553Z,2.33
2022-08-05T05:34:01.675Z,2.90
2022-08-05T05:36:28.708Z,2.72
2022-08-05T05:38:57.207Z,2.40
2022-08-05T05:41:24.298Z,2.35
2022-08-05T05:43:58.547Z,2.58
2022-08-05T05:46:27.406Z,2.30
2022-08-05T05:51:22.523Z,2.70
2022-08-05T05:53:57.428Z,2.47
2022-08-05T05:56:32.239Z,2.15
2022-08-05T05:59:07.785Z,2.30
2022-08-05T06:01:40.099Z,2.15
2022-08-05T06:04:12.877Z,2.10
2022-08-05T06:06:42.655Z,2.55
2022-08-05T06:09:17.667Z,2.53
2022-08-05T06:12:01.474Z,2.60
2022-08-05T06:14:29.996Z,2.55
2022-08-05T06:16:57.878Z,2.50
2022-08-05T06:19:26.100Z,2.83
2022-08-05T06:22:03.468Z,2.28
2022-08-05T06:24:30.799Z,2.30
2022-08-05T06:26:58.145Z,2.50
2022-08-05T06:29:49.306Z,2.25
2022-08-05T06:32:25.091Z,2.20
2022-08-05T06:34:57.406Z,1.95
2022-08-05T06:37:52.410Z,2.83
2022-08-05T06:40:20.554Z,2.83
2022-08-05T06:42:52.427Z,2.17
2022-08-05T06:45:43.897Z,2.42
2022-08-05T06:48:46.901Z,2.38
2022-08-05T06:50:55.343Z,2.97
2022-08-05T06:53:28.334Z,2.50
2022-08-05T06:55:58.245Z,2.20
2022-08-05T06:58:29.695Z,2.60
2022-08-05T07:01:02.890Z,3.05
2022-08-05T07:03:32.713Z,3.10
2022-08-05T07:06:05.955Z,3.58
2022-08-05T07:08:47.837Z,3.75
2022-08-05T07:11:22.643Z,3.30
2022-08-05T07:14:15.487Z,3.50
2022-08-05T07:17:56.351Z,3.78
2022-08-05T07:20:29.882Z,2.80
2022-08-05T07:22:27.758Z,2.97
2022-08-05T07:24:58.672Z,3.50
2022-08-05T07:27:27.735Z,3.03
2022-08-05T07:30:27.399Z,3.03
2022-08-05T07:32:57.553Z,2.75
2022-08-05T07:36:04.594Z,3.33
2022-08-05T07:38:12.407Z,3.40
2022-08-05T07:40:39.502Z,2.92
2022-08-05T07:43:20.250Z,3.25
2022-08-05T07:45:57.700Z,2.97
2022-08-05T07:49:01.711Z,3.53
2022-08-05T07:53:51.290Z,2.80
2022-08-05T07:56:39.331Z,3.42
2022-08-05T07:59:08.424Z,3.63
2022-08-05T08:01:35.704Z,3.05
2022-08-05T08:04:37.232Z,3.40
2022-08-05T08:07:07.405Z,3.20
2022-08-05T08:09:35.068Z,3.75
2022-08-05T08:12:12.463Z,2.95
2022-08-05T08:14:46.795Z,3.50
2022-08-05T08:17:20.548Z,2.75
2022-08-05T08:20:21.858Z,3.00
2022-08-05T08:22:35.024Z,2.70
2022-08-05T08:25:03.448Z,3.08
2022-08-05T08:27:45.148Z,2.55
2022-08-05T08:30:20.255Z,3.53
2022-08-05T08:32:57.392Z,3.10
2022-08-05T08:35:26.568Z,3.05
2022-08-05T08:37:54.468Z,2.67
2022-08-05T08:40:24.301Z,3.42
2022-08-05T08:42:53.066Z,2.10
2022-08-05T08:45:27.107Z,3.13
2022-08-05T08:48:11.316Z,3.03
2022-08-05T08:51:03.815Z,2.78
2022-08-05T08:53:44.373Z,2.95
2022-08-05T08:56:12.483Z,3.35
2022-08-05T08:58:44.672Z,2.53
2022-08-05T09:01:17.908Z,3.08
2022-08-05T09:03:55.555Z,2.42
2022-08-05T09:06:30.253Z,3.30
2022-08-05T09:08:59.499Z,2.92
2022-08-05T09:11:53.064Z,3.25
2022-08-05T09:14:56.346Z,2.83
2022-08-05T09:17:02.514Z,3.30
2022-08-05T09:19:36.780Z,2.92
2022-08-05T09:22:32.088Z,3.55
2022-08-05T09:25:01.599Z,2.90
2022-08-05T09:28:03.982Z,3.40
2022-08-05T09:30:23.517Z,3.00
2022-08-05T09:32:51.647Z,3.25
2022-08-05T09:35:26.473Z,3.03
2022-08-05T09:38:17.953Z,3.22
2022-08-05T09:40:44.639Z,2.88
2022-08-05T09:43:40.604Z,3.30
2022-08-05T09:46:27.775Z,3.05
2022-08-05T09:49:07.300Z,3.22
2022-08-05T09:51:42.215Z,2.95
2022-08-05T09:54:09.418Z,3.35
2022-08-05T09:56:38.042Z,3.42
2022-08-05T09:59:08.149Z,3.17
2022-08-05T10:01:45.772Z,3.55
2022-08-05T10:04:16.172Z,3.70
2022-08-05T10:06:59.563Z,3.65
2022-08-05T10:09:29.863Z,2.90
2022-08-05T10:12:18.891Z,3.50
2022-08-05T10:15:22.279Z,3.55
2022-08-05T10:18:09.601Z,3.30
2022-08-05T10:20:40.782Z,2.90
2022-08-05T10:23:34.277Z,2.70
2022-08-05T10:25:58.123Z,3.25
2022-08-05T10:28:30.250Z,3.33
2022-08-05T10:32:47.463Z,3.90
2022-08-05T10:33:46.066Z,3.45
2022-08-05T10:36:23.697Z,2.70
2022-08-05T10:39:00.524Z,3.17
2022-08-05T10:41:45.244Z,3.33
2022-08-05T10:44:18.150Z,3.33
2022-08-05T10:46:50.732Z,3.22
2022-08-05T10:49:18.642Z,3.22
2022-08-05T10:52:00.438Z,3.47
2022-08-05T10:54:56.498Z,3.55
2022-08-05T10:57:32.389Z,3.25
2022-08-05T11:00:24.166Z,3.10
2022-08-05T11:03:23.720Z,3.00
2022-08-05T11:06:05.000Z,3.03
2022-08-05T11:08:37.298Z,3.28
2022-08-05T11:11:44.462Z,3.22
2022-08-05T11:17:59.891Z,3.40
2022-08-05T11:20:41.670Z,3.65
2022-08-05T11:24:03.847Z,3.33
2022-08-05T11:26:28.101Z,3.60
2022-08-05T11:28:56.733Z,3.53
2022-08-05T11:31:57.943Z,3.30
2022-08-05T11:34:35.978Z,3.30
2022-08-05T11:37:02.802Z,4.07
2022-08-05T11:40:00.448Z,3.28
2022-08-05T11:42:40.133Z,3.42
2022-08-05T11:45:23.132Z,3.63
2022-08-05T11:47:55.367Z,3.25
2022-08-05T11:50:22.900Z,2.85
2022-08-05T11:52:53.193Z,2.88
2022-08-05T11:55:21.543Z,3.58
2022-08-05T11:58:10.648Z,2.83
2022-08-05T12:00:41.216Z,3.13
2022-08-05T12:03:29.499Z,3.40
2022-08-05T12:06:01.572Z,2.95
2022-08-05T12:08:31.691Z,2.60
2022-08-05T12:11:05.719Z,2.70
2022-08-05T12:13:48.593Z,2.92
2022-08-05T12:16:19.494Z,3.50
2022-08-05T12:18:52.105Z,3.15
2022-08-05T12:21:26.831Z,3.13
2022-08-05T12:24:07.579Z,2.53
2022-08-05T12:26:43.874Z,3.00
2022-08-05T12:29:17.872Z,2.85
2022-08-05T12:31:57.249Z,2.95
2022-08-05T12:34:33.432Z,2.53
2022-08-05T12:37:17.628Z,3.38
2022-08-05T12:39:51.722Z,3.17
2022-08-05T12:42:20.766Z,2.72
2022-08-05T12:44:48.366Z,3.00
2022-08-05T12:47:28.803Z,3.00
2022-08-05T12:50:04.252Z,2.95
2022-08-05T12:52:39.139Z,3.03
2022-08-05T12:55:26.575Z,2.95
2022-08-05T12:58:49.002Z,2.80
2022-08-05T13:02:00.326Z,2.67
2022-08-05T13:03:42.065Z,3.30
2022-08-05T13:06:16.487Z,3.05
2022-08-05T13:08:50.595Z,2.70
2022-08-05T13:12:01.128Z,3.17
2022-08-05T13:14:24.553Z,2.95
2022-08-05T13:17:06.955Z,2.80
2022-08-05T13:19:52.105Z,3.03
2022-08-05T13:22:29.689Z,2.63
2022-08-05T13:25:00.709Z,2.97
2022-08-05T13:27:37.364Z,2.60
2022-08-05T13:30:35.066Z,2.55
2022-08-05T13:32:56.374Z,3.20
2022-08-05T13:35:31.437Z,2.72
2022-08-05T13:40:51.477Z,2.58
2022-08-05T13:43:21.762Z,3.10
2022-08-05T13:45:49.162Z,3.33
2022-08-05T13:49:00.381Z,3.15
2022-08-05T13:51:09.546Z,3.00
2022-08-05T13:53:48.162Z,3.03
2022-08-05T13:56:19.152Z,2.85
2022-08-05T13:58:53.084Z,2.63
2022-08-05T14:01:27.487Z,2.92
2022-08-05T14:04:26.896Z,3.00
2022-08-05T14:07:12.102Z,3.20
2022-08-05T14:09:45.947Z,3.65
2022-08-05T14:12:18.143Z,3.25
2022-08-05T14:14:59.280Z,3.30
2022-08-05T14:17:28.315Z,2.95
2022-08-05T14:20:00.958Z,2.85
2022-08-05T14:22:34.254Z,3.42
2022-08-05T14:25:02.561Z,3.10
2022-08-05T14:27:33.290Z,2.65
2022-08-05T14:30:01.106Z,3.47
2022-08-05T14:32:30.200Z,3.25
2022-08-05T14:34:57.637Z,2.83
2022-08-05T14:37:45.558Z,3.13
2022-08-05T14:40:14.049Z,3.00
2022-08-05T14:42:41.350Z,3.17
2022-08-05T14:45:10.099Z,3.67
2022-08-05T14:48:04.205Z,3.40
2022-08-05T14:50:25.372Z,3.20
2022-08-05T14:52:57.859Z,3.15
2022-08-05T14:55:28.767Z,3.40
2022-08-05T14:58:11.226Z,3.47
2022-08-05T15:00:59.706Z,3.10
2022-08-05T15:03:33.310Z,3.30
2022-08-05T15:06:13.480Z,3.15
2022-08-05T15:08:59.661Z,2.90
2022-08-05T15:11:51.240Z,3.40
2022-08-05T15:14:34.247Z,3.50
2022-08-05T15:17:05.030Z,3.05
2022-08-05T15:19:36.980Z,3.20
2022-08-05T15:22:05.936Z,4.32
2022-08-05T15:24:32.828Z,3.92
2022-08-05T15:26:59.703Z,3.15
2022-08-05T15:29:30.229Z,3.25
2022-08-05T15:32:02.443Z,3.58
2022-08-05T15:34:32.195Z,3.17
2022-08-05T15:37:03.473Z,3.70
2022-08-05T15:40:41.396Z,3.40
2022-08-05T15:45:07.660Z,3.08
2022-08-05T15:47:40.478Z,3.80
2022-08-05T15:50:08.496Z,4.07
2022-08-05T15:52:54.164Z,3.25
2022-08-05T15:55:24.997Z,3.30
2022-08-05T16:00:50.595Z,4.00
2022-08-05T16:03:30.363Z,4.22
2022-08-05T16:05:59.820Z,3.53
2022-08-05T16:08:30.643Z,3.83
2022-08-05T16:10:58.223Z,3.65
2022-08-05T16:13:32.095Z,3.40
2022-08-05T16:16:03.356Z,3.47
2022-08-05T16:18:32.805Z,3.60
2022-08-05T16:21:04.183Z,3.53
2022-08-05T16:23:32.967Z,3.25
2022-08-05T16:26:20.062Z,2.67
2022-08-05T16:28:54.363Z,3.53
2022-08-05T16:31:21.841Z,4.03
2022-08-05T16:33:49.742Z,3.05
2022-08-05T16:36:20.570Z,3.92
2022-08-05T16:38:54.308Z,3.42
2022-08-05T16:42:12.239Z,3.35
2022-08-05T16:46:41.049Z,3.33
2022-08-05T16:49:11.768Z,3.55
2022-08-05T16:51:42.653Z,3.60
2022-08-05T16:56:55.663Z,3.05
2022-08-05T16:59:22.859Z,3.25
2022-08-05T17:01:54.997Z,3.85
2022-08-05T17:04:26.477Z,3.58
2022-08-05T17:06:55.247Z,4.30
2022-08-05T17:09:23.102Z,4.63
2022-08-05T17:11:56.005Z,4.38
2022-08-05T17:14:37.307Z,5.68
2022-08-05T17:17:09.303Z,4.63
2022-08-05T17:19:43.723Z,5.25
2022-08-05T17:22:24.409Z,5.30
2022-08-05T17:24:58.058Z,4.93
2022-08-05T17:27:33.801Z,5.72
2022-08-05T17:30:03.027Z,4.32
2022-08-05T17:32:30.502Z,4.38
2022-08-05T17:35:01.059Z,4.35
2022-08-05T17:37:41.700Z,4.88
2022-08-05T17:40:14.866Z,4.30
2022-08-05T17:42:50.884Z,4.45
2022-08-05T17:45:21.177Z,4.32
2022-08-05T17:47:53.949Z,3.67
2022-08-05T17:50:28.032Z,4.38
2022-08-05T17:52:56.460Z,4.72
2022-08-05T17:55:27.354Z,4.30
2022-08-05T17:58:02.017Z,3.95
2022-08-05T18:00:29.584Z,3.83
2022-08-05T18:02:56.777Z,4.05
2022-08-05T18:05:24.048Z,4.00
2022-08-05T18:07:55.346Z,3.45
2022-08-05T18:10:23.953Z,4.10
2022-08-05T18:12:51.375Z,4.13
2022-08-05T18:15:18.172Z,3.90
2022-08-05T18:17:58.668Z,4.05
2022-08-05T18:20:29.189Z,4.00
2022-08-05T18:23:09.145Z,3.47
2022-08-05T18:25:39.561Z,3.50
2022-08-05T18:28:11.769Z,3.85
2022-08-05T18:30:39.015Z,3.10
2022-08-05T18:33:08.381Z,7.97
2022-08-05T18:36:00.553Z,4.35
2022-08-05T18:38:26.241Z,3.95
2022-08-05T18:41:57.468Z,2.97
2022-08-05T18:43:42.811Z,3.08
2022-08-05T18:46:15.452Z,2.83
2022-08-05T18:48:46.544Z,3.33
2022-08-05T18:52:06.091Z,2.85
2022-08-05T18:54:19.842Z,2.45
2022-08-05T18:56:51.277Z,2.63
2022-08-05T18:59:42.752Z,2.50
2022-08-05T19:02:11.172Z,2.63
2022-08-05T19:05:00.996Z,2.65
2022-08-05T19:07:25.940Z,2.53
2022-08-05T19:09:56.892Z,2.10
2022-08-05T19:12:23.936Z,2.97
2022-08-05T19:15:00.831Z,2.60
2022-08-05T19:17:59.564Z,3.35
2022-08-05T19:20:16.554Z,4.17
2022-08-05T19:22:44.521Z,4.63
2022-08-05T19:25:21.525Z,3.72
2022-08-05T19:27:57.039Z,4.22
2022-08-05T19:30:23.859Z,3.78
2022-08-05T19:32:50.709Z,3.65
2022-08-05T19:35:17.497Z,2.65
2022-08-05T19:38:06.258Z,3.97
2022-08-05T19:40:33.781Z,3.20
2022-08-05T19:43:00.903Z,3.83
2022-08-05T19:45:33.328Z,3.22
2022-08-05T19:48:05.277Z,3.40
2022-08-05T19:50:32.298Z,3.38
2022-08-05T19:53:09.511Z,2.92
2022-08-05T19:56:12.603Z,3.42
2022-08-05T19:58:28.625Z,3.63
2022-08-05T20:00:56.755Z,3.60
2022-08-05T20:03:26.251Z,3.53
2022-08-05T20:05:56.433Z,3.65
2022-08-05T20:08:24.548Z,3.55
2022-08-05T20:10:52.293Z,4.05
2022-08-05T20:13:29.856Z,3.47
2022-08-05T20:16:06.427Z,3.80
2022-08-05T20:18:36.215Z,3.63
2022-08-05T20:21:05.158Z,4.07
2022-08-05T20:23:39.620Z,4.20
2022-08-05T20:26:18.485Z,3.85
2022-08-05T20:28:48.587Z,3.85
2022-08-05T20:31:16.864Z,4.25
2022-08-05T20:33:44.743Z,3.88
2022-08-05T20:36:12.053Z,4.18
2022-08-05T20:38:53.668Z,4.90
2022-08-05T20:41:27.037Z,4.68
2022-08-05T20:44:19.017Z,4.28
2022-08-05T20:47:00.296Z,4.40
2022-08-05T20:49:27.407Z,4.53
2022-08-05T20:51:55.938Z,4.95
2022-08-05T20:54:25.421Z,5.00
2022-08-05T20:56:52.913Z,5.00
2022-08-05T20:59:26.483Z,4.72
2022-08-05T21:01:57.223Z,4.90
2022-08-05T21:04:26.872Z,5.05
2022-08-05T21:06:54.943Z,5.30
2022-08-05T21:09:22.772Z,5.47
2022-08-05T21:12:07.086Z,5.40
2022-08-05T21:14:36.196Z,4.47
2022-08-05T21:17:05.108Z,3.50
2022-08-05T21:19:46.584Z,4.40
2022-08-05T21:22:18.447Z,4.03
2022-08-05T21:24:51.570Z,4.38
2022-08-05T21:27:24.971Z,5.15
2022-08-05T21:29:55.911Z,4.95
2022-08-05T21:32:27.798Z,5.40
2022-08-05T21:35:17.353Z,5.20
2022-08-05T21:37:47.268Z,5.13
2022-08-05T21:40:20.588Z,5.28
2022-08-05T21:42:47.704Z,4.80
2022-08-05T21:45:24.482Z,4.50
2022-08-05T21:47:56.649Z,5.03
2022-08-05T21:50:26.198Z,5.43
2022-08-05T21:52:53.680Z,6.00
2022-08-05T21:56:01.720Z,5.43
2022-08-05T21:58:12.807Z,6.20
2022-08-05T22:00:40.102Z,4.70
2022-08-05T22:03:10.030Z,4.78
2022-08-05T22:05:48.435Z,4.30
2022-08-05T22:08:22.239Z,4.65
2022-08-05T22:10:51.605Z,4.80
2022-08-05T22:14:31.558Z,5.30
2022-08-05T22:16:32.348Z,4.68
2022-08-05T22:18:54.091Z,5.65
2022-08-05T22:21:25.873Z,6.70
2022-08-05T22:24:13.313Z,5.72
2022-08-05T22:27:17.655Z,5.03
2022-08-05T22:29:44.687Z,5.07
2022-08-05T22:32:12.777Z,5.28
2022-08-05T22:34:44.449Z,4.57
2022-08-05T22:37:12.662Z,5.68
2022-08-05T22:42:11.386Z,5.72
2022-08-05T22:44:42.504Z,6.07
2022-08-05T22:47:28.916Z,6.00
2022-08-05T22:50:20.748Z,4.35
2022-08-05T22:52:45.892Z,5.55
2022-08-05T22:55:19.399Z,6.07
2022-08-05T22:57:49.830Z,6.22
2022-08-05T23:00:17.771Z,5.75
2022-08-05T23:02:47.918Z,5.25
2022-08-05T23:05:16.203Z,4.72
2022-08-05T23:07:48.450Z,5.07
2022-08-05T23:10:19.942Z,5.68
2022-08-05T23:12:51.530Z,5.47
2022-08-05T23:15:29.227Z,4.93
2022-08-05T23:18:00.552Z,4.82
2022-08-05T23:20:28.877Z,4.85
2022-08-05T23:22:56.466Z,5.30
2022-08-05T23:25:53.251Z,5.40
2022-08-05T23:28:12.192Z,5.35
2022-08-05T23:30:43.527Z,5.18
2022-08-05T23:33:22.355Z,4.57
2022-08-05T23:35:55.953Z,5.65
2022-08-05T23:38:24.075Z,5.47
2022-08-05T23:40:52.425Z,5.03
2022-08-05T23:43:25.731Z,4.80
2022-08-05T23:46:21.196Z,4.93
2022-08-05T23:48:59.773Z,5.57
2022-08-05T23:51:53.385Z,5.47
2022-08-05T23:54:25.736Z,4.85
2022-08-05T23:57:03.436Z,5.40
